Aviation Digital Data Service (ADDS)

Output produced by TAFs form (1957 UTC 25 February 2018)
found at http://aviationweather.gov/adds/tafs/
 
METAR text: OERK 251900Z 00000KT 9999 FEW040 16/09 Q1017 NOSIG
Conditions at: OERK (RIYADH/KING KHAL, SA) observed 1900 UTC 25 February 2018
Temperature: 16.0°C (61°F)
Dewpoint: 9.0°C (48°F) [RH = 63%]
Pressure (altimeter): 30.03 inches Hg (1017.0 mb)
Winds: calm
Visibility: 6 or more miles (10+ km)
Ceiling: at least 12,000 feet AGL
Clouds: few clouds at 4000 feet AGL
Weather: no significant weather observed at this time

Forecast for: OERK (RIYADH/KING KHAL, SA)
Text: TAF OERK 251700Z 2518/2624 VRB03KT 8000 FEW040
Forecast period: 1800 UTC 25 February 2018 to 0600 UTC 26 February 2018
Forecast type: FROM: standard forecast or significant change
Winds: variable direction winds at 3 MPH (3 knots; 1.6 m/s)
Visibility: 5 miles (8 km)
Clouds: few clouds at 4000 feet AGL
Weather: no significant weather forecast for this period
Text: BECMG 2606/2608 17015KT
Forecast period: 0600 UTC 26 February 2018 to 0000 UTC 27 February 2018
Forecast type: BECOMING: Conditions expected to become as follows by 0800 UTC 26 February 2018
Winds: from the S (170 degrees) at 17 MPH (15 knots; 7.8 m/s)
Visibility: 5 miles (8 km)
Clouds: few clouds at 4000 feet AGL
Weather: no significant weather forecast for this period